Time;durP1;ratioP1;P1;durP2;ratioP2;P2;SDS_P1;SDS_P2;PMS_P1;PMS_P2;Temp;Humidity;BMP_temperature;BMP_pressure;BME280_temperature;BME280_humidity;BME280_pressure;Samples;Min_cycle;Max_cycle;Signal;HPM_P1;HPM_P2
2023/09/12 00:00:26;;;;;;;9.63;6.43;;;;;;;18.29;100.00;100131.97;5590403;31;34533;-65
2023/09/12 00:03:29;;;;;;;20.65;6.57;;;;;;;18.26;100.00;100129.72;5590483;31;33994;-65
2023/09/12 00:06:32;;;;;;;15.48;6.60;;;;;;;18.27;100.00;100133.22;5590585;31;33886;-65
2023/09/12 00:09:35;;;;;;;14.32;6.80;;;;;;;18.22;100.00;100132.03;5590370;31;34591;-65
2023/09/12 00:12:38;;;;;;;14.02;7.03;;;;;;;18.18;100.00;100138.91;5590201;31;34133;-65
2023/09/12 00:15:41;;;;;;;13.68;6.85;;;;;;;18.15;100.00;100141.22;5590382;31;34736;-65
2023/09/12 00:18:44;;;;;;;14.50;6.57;;;;;;;18.07;100.00;100138.78;5590344;31;33749;-65
2023/09/12 00:21:48;;;;;;;17.23;6.57;;;;;;;18.06;100.00;100137.16;5590661;31;33850;-65
2023/09/12 00:24:51;;;;;;;12.63;6.32;;;;;;;18.01;100.00;100137.81;5590268;31;34533;-65
2023/09/12 00:27:54;;;;;;;19.27;6.00;;;;;;;17.97;100.00;100135.78;5589829;31;33945;-65
2023/09/12 00:30:56;;;;;;;14.57;6.82;;;;;;;17.98;100.00;100135.59;5590203;31;34551;-65
2023/09/12 00:33:59;;;;;;;16.40;5.90;;;;;;;17.98;100.00;100135.59;5590268;31;33905;-65
2023/09/12 00:37:02;;;;;;;17.42;5.90;;;;;;;17.98;100.00;100132.06;5590495;31;34913;-65
2023/09/12 00:40:06;;;;;;;15.90;6.03;;;;;;;17.95;100.00;100135.22;5590156;31;33756;-65
2023/09/12 00:43:10;;;;;;;10.88;5.80;;;;;;;17.89;100.00;100136.91;5590062;31;33835;-66
2023/09/12 00:46:23;;;;;;;13.23;5.60;;;;;;;17.83;100.00;100134.28;5589988;31;34007;-66
2023/09/12 00:49:27;;;;;;;15.15;5.93;;;;;;;17.83;100.00;100137.78;5590475;31;33813;-66
2023/09/12 00:52:33;;;;;;;13.13;6.03;;;;;;;17.71;100.00;100139.56;5589986;31;34943;-65
2023/09/12 00:55:39;;;;;;;11.60;5.68;;;;;;;17.67;100.00;100135.69;5590019;31;34130;-65
2023/09/12 00:58:42;;;;;;;14.00;6.12;;;;;;;17.63;100.00;100139.81;5589919;31;34471;-65
2023/09/12 01:01:45;;;;;;;20.98;6.03;;;;;;;17.53;100.00;100134.91;5589942;31;33967;-65
2023/09/12 01:04:49;;;;;;;10.68;5.78;;;;;;;17.48;100.00;100132.06;5589922;31;33851;-65
2023/09/12 01:07:52;;;;;;;14.55;5.97;;;;;;;17.47;100.00;100132.31;5589847;31;33763;-66
2023/09/12 01:10:58;;;;;;;13.02;6.07;;;;;;;17.43;100.00;100129.22;5589963;31;34796;-66
2023/09/12 01:14:01;;;;;;;14.27;5.70;;;;;;;17.41;100.00;100133.19;5589928;31;34509;-65
2023/09/12 01:17:04;;;;;;;14.10;6.10;;;;;;;17.37;100.00;100132.81;5589778;31;34173;-65
2023/09/12 01:20:11;;;;;;;15.35;6.50;;;;;;;17.36;100.00;100133.84;5589966;31;34427;-65
2023/09/12 01:23:44;;;;;;;15.25;6.53;;;;;;;17.33;100.00;100136.97;5589828;31;33868;-65
2023/09/12 01:27:03;;;;;;;14.10;6.43;;;;;;;17.31;100.00;100137.16;5577016;31;33769;-65
2023/09/12 01:30:08;;;;;;;12.52;6.28;;;;;;;17.32;100.00;100135.31;5590098;31;33841;-65
2023/09/12 01:33:11;;;;;;;14.80;6.20;;;;;;;17.29;100.00;100141.91;5589599;31;34695;-65
2023/09/12 01:36:14;;;;;;;16.12;6.80;;;;;;;17.27;100.00;100138.66;5589977;31;33943;-65
2023/09/12 01:39:16;;;;;;;14.82;6.35;;;;;;;17.23;100.00;100137.41;5589044;31;34455;-65
2023/09/12 01:42:21;;;;;;;17.00;6.75;;;;;;;17.22;100.00;100140.31;5589111;31;34503;-65
2023/09/12 01:45:24;;;;;;;13.20;6.68;;;;;;;17.19;100.00;100133.53;5589805;31;36265;-65
2023/09/12 01:48:33;;;;;;;12.50;6.78;;;;;;;17.16;100.00;100143.88;5589443;31;34727;-65
2023/09/12 01:51:37;;;;;;;16.83;6.82;;;;;;;17.19;100.00;100141.56;5589968;31;33872;-65
2023/09/12 01:54:41;;;;;;;11.65;6.28;;;;;;;17.13;100.00;100133.59;5589478;31;33812;-65
2023/09/12 01:57:43;;;;;;;13.30;6.78;;;;;;;17.06;100.00;100132.78;5589944;31;34964;-65
2023/09/12 02:01:02;;;;;;;17.90;6.40;;;;;;;17.06;100.00;100130.94;5589470;31;33908;-65
2023/09/12 02:04:08;;;;;;;20.48;6.40;;;;;;;17.02;100.00;100142.31;5589589;31;33794;-65
2023/09/12 02:07:11;;;;;;;14.98;6.53;;;;;;;16.98;100.00;100139.25;5589516;31;34532;-65
2023/09/12 02:10:14;;;;;;;10.02;6.18;;;;;;;16.97;100.00;100136.78;5589441;31;34020;-65
2023/09/12 02:13:17;;;;;;;16.55;6.30;;;;;;;16.96;100.00;100138.63;5589501;31;33715;-65
2023/09/12 02:16:19;;;;;;;12.82;6.85;;;;;;;16.94;100.00;100140.72;5589277;31;33775;-65
2023/09/12 02:19:22;;;;;;;21.23;6.75;;;;;;;16.92;100.00;100148.97;5589125;31;34099;-65
2023/09/12 02:22:25;;;;;;;18.15;6.57;;;;;;;16.90;100.00;100148.34;5589203;31;33955;-65
2023/09/12 02:25:28;;;;;;;14.15;6.95;;;;;;;16.88;100.00;100144.25;5589276;31;33777;-65
2023/09/12 02:28:31;;;;;;;11.15;6.45;;;;;;;16.87;100.00;100150.62;5589132;31;33820;-65
2023/09/12 02:31:33;;;;;;;14.55;6.22;;;;;;;16.86;100.00;100147.12;5589136;31;33951;-65
2023/09/12 02:34:36;;;;;;;10.15;6.55;;;;;;;16.83;100.00;100141.38;5589046;31;33919;-65
2023/09/12 02:37:39;;;;;;;13.48;7.05;;;;;;;16.82;100.00;100150.44;5589365;31;33850;-65
2023/09/12 02:40:42;;;;;;;16.73;6.85;;;;;;;16.84;100.00;100143.88;5588873;31;33809;-64
2023/09/12 02:43:44;;;;;;;14.40;6.90;;;;;;;16.77;100.00;100145.72;5588283;31;31941;-65
2023/09/12 02:46:48;;;;;;;17.00;6.82;;;;;;;16.75;100.00;100141.66;5589246;31;34535;-65
2023/09/12 02:49:51;;;;;;;12.35;7.12;;;;;;;16.70;100.00;100147.59;5588990;31;34806;-65
2023/09/12 02:52:54;;;;;;;11.18;6.82;;;;;;;16.67;100.00;100144.53;5588341;31;35240;-65
2023/09/12 02:55:57;;;;;;;13.95;7.15;;;;;;;16.65;100.00;100152.00;5588778;31;35133;-65
2023/09/12 02:59:00;;;;;;;13.30;7.10;;;;;;;16.64;100.00;100156.53;5589023;31;33800;-65
2023/09/12 03:02:02;;;;;;;18.37;7.40;;;;;;;16.66;100.00;100150.94;5588635;31;33938;-65
2023/09/12 03:05:06;;;;;;;11.77;6.78;;;;;;;16.63;100.00;100146.00;5588625;31;33870;-65
2023/09/12 03:08:08;;;;;;;18.10;7.15;;;;;;;16.63;100.00;100146.00;5588468;31;33868;-65
2023/09/12 03:11:12;;;;;;;16.02;6.82;;;;;;;16.58;100.00;100145.78;5588481;31;33901;-65
2023/09/12 03:14:14;;;;;;;15.88;7.53;;;;;;;16.55;100.00;100146.22;5588333;31;34558;-65
2023/09/12 03:17:17;;;;;;;14.00;7.07;;;;;;;16.50;100.00;100147.69;5587970;31;34444;-65
2023/09/12 03:20:20;;;;;;;13.65;7.43;;;;;;;16.49;100.00;100146.03;5588587;31;34759;-65
2023/09/12 03:23:23;;;;;;;15.70;7.30;;;;;;;16.47;100.00;100147.28;5588305;31;33923;-65
2023/09/12 03:26:26;;;;;;;16.23;7.00;;;;;;;16.48;100.00;100152.41;5588069;31;33878;-65
2023/09/12 03:29:29;;;;;;;10.75;6.87;;;;;;;16.47;100.00;100144.59;5588439;31;33858;-64
2023/09/12 03:32:32;;;;;;;11.50;7.10;;;;;;;16.46;100.00;100145.63;5588001;31;34545;-64
2023/09/12 03:35:36;;;;;;;12.23;6.90;;;;;;;16.42;100.00;100149.75;5588040;31;33897;-66
2023/09/12 03:38:39;;;;;;;15.35;7.25;;;;;;;16.40;100.00;100154.50;5587821;31;33924;-65
2023/09/12 03:41:42;;;;;;;13.80;7.32;;;;;;;16.35;100.00;100154.31;5587952;31;34394;-65
2023/09/12 03:44:45;;;;;;;17.00;7.35;;;;;;;16.33;100.00;100162.56;5587768;31;34640;-66
2023/09/12 03:47:48;;;;;;;12.10;7.15;;;;;;;16.28;100.00;100159.69;5588142;31;33887;-65
2023/09/12 03:50:51;;;;;;;12.82;7.20;;;;;;;16.24;100.00;100157.62;5587614;31;34713;-65
2023/09/12 03:53:54;;;;;;;12.68;7.10;;;;;;;16.24;100.00;100154.97;5587262;31;33918;-65
2023/09/12 03:56:57;;;;;;;12.23;7.00;;;;;;;16.23;100.00;100166.69;5587660;31;33808;-65
2023/09/12 04:00:00;;;;;;;16.08;7.35;;;;;;;16.22;100.00;100165.03;5587526;31;33791;-65
2023/09/12 04:03:03;;;;;;;12.05;6.80;;;;;;;16.20;100.00;100162.59;5587875;31;34507;-65
2023/09/12 04:06:06;;;;;;;13.65;6.95;;;;;;;16.18;100.00;100166.50;5590509;31;33847;-65
2023/09/12 04:09:09;;;;;;;14.02;6.70;;;;;;;16.16;100.00;100160.56;5590283;31;34601;-65
2023/09/12 04:12:12;;;;;;;19.33;6.80;;;;;;;16.18;100.00;100163.81;5590293;31;34001;-66
2023/09/12 04:15:15;;;;;;;15.82;7.25;;;;;;;16.13;100.00;100167.13;5589727;31;34508;-65
2023/09/12 04:18:18;;;;;;;18.33;7.05;;;;;;;16.15;100.00;100169.59;5590438;31;34513;-65
2023/09/12 04:21:21;;;;;;;13.88;7.28;;;;;;;16.11;100.00;100161.19;5590241;31;34815;-66
2023/09/12 04:24:24;;;;;;;14.57;7.12;;;;;;;16.11;100.00;100166.53;5590277;31;33833;-66
2023/09/12 04:27:26;;;;;;;13.98;7.43;;;;;;;16.10;100.00;100164.88;5590343;31;34473;-65
2023/09/12 04:30:29;;;;;;;17.25;7.37;;;;;;;16.15;100.00;100177.62;5590234;31;33913;-66
2023/09/12 04:33:33;;;;;;;16.27;7.78;;;;;;;16.18;100.00;100170.00;5590324;31;34534;-65
2023/09/12 04:36:36;;;;;;;17.73;7.60;;;;;;;16.30;100.00;100176.37;5590161;31;34096;-66
2023/09/12 04:39:39;;;;;;;20.83;8.15;;;;;;;16.57;100.00;100170.91;5589926;31;34441;-67
2023/09/12 04:42:42;;;;;;;15.38;7.40;;;;;;;16.63;100.00;100175.47;5590180;31;33690;-67
2023/09/12 04:45:44;;;;;;;14.48;7.85;;;;;;;16.61;100.00;100177.53;5589918;31;34513;-67
2023/09/12 04:48:47;;;;;;;21.05;7.72;;;;;;;16.67;100.00;100179.37;5590497;31;33864;-67
2023/09/12 04:51:50;;;;;;;17.15;8.20;;;;;;;16.69;100.00;100188.84;5589908;31;34765;-67
2023/09/12 04:54:53;;;;;;;16.83;7.37;;;;;;;16.82;100.00;100188.78;5589593;31;34933;-67
2023/09/12 04:57:56;;;;;;;20.40;7.95;;;;;;;16.82;100.00;100185.28;5589985;31;34075;-67
2023/09/12 05:01:02;;;;;;;24.95;7.43;;;;;;;16.82;100.00;100188.78;5589848;31;34008;-67
2023/09/12 05:04:05;;;;;;;37.05;8.77;;;;;;;16.90;100.00;100195.75;5589199;31;33941;-68
2023/09/12 05:07:09;;;;;;;23.02;7.78;;;;;;;17.08;100.00;100195.88;5589875;31;33738;-68
2023/09/12 05:10:13;;;;;;;13.65;7.22;;;;;;;17.10;100.00;100195.66;5589848;31;34085;-67
2023/09/12 05:13:16;;;;;;;16.60;8.23;;;;;;;17.21;100.00;100197.66;5589769;31;33837;-66
2023/09/12 05:16:19;;;;;;;20.20;7.70;;;;;;;17.27;100.00;100197.63;5589429;31;33885;-67
2023/09/12 05:19:24;;;;;;;28.05;8.75;;;;;;;17.30;100.00;100199.03;5589466;31;34578;-66
2023/09/12 05:22:27;;;;;;;21.85;7.90;;;;;;;17.39;100.00;100195.88;5589272;31;33703;-67
2023/09/12 05:25:30;;;;;;;21.98;8.38;;;;;;;17.47;100.00;100200.19;5589832;31;33822;-67
2023/09/12 05:28:34;;;;;;;19.75;7.90;;;;;;;17.51;100.00;100200.56;5589286;31;34545;-67
2023/09/12 05:31:37;;;;;;;19.02;7.93;;;;;;;17.61;100.00;100204.44;5589515;31;33844;-68
2023/09/12 05:34:40;;;;;;;19.50;7.80;;;;;;;17.69;100.00;100197.97;5589507;31;33796;-68
2023/09/12 05:37:43;;;;;;;17.58;8.27;;;;;;;17.80;100.00;100199.97;5589569;31;33731;-68
2023/09/12 05:40:46;;;;;;;19.77;7.68;;;;;;;18.04;100.00;100214.41;5588411;31;33930;-68
2023/09/12 05:43:49;;;;;;;17.90;7.30;;;;;;;18.14;100.00;100215.56;5589251;31;34635;-68
2023/09/12 05:46:51;;;;;;;25.85;7.85;;;;;;;18.21;100.00;100216.31;5588597;31;34038;-69
2023/09/12 05:49:55;;;;;;;24.70;8.43;;;;;;;18.18;100.00;100216.75;5589322;31;33863;-68
2023/09/12 05:52:58;;;;;;;27.20;7.93;;;;;;;18.20;100.00;100216.56;5588892;31;34244;-68
2023/09/12 05:56:02;;;;;;;23.52;8.15;;;;;;;18.41;100.00;100218.78;5588689;31;33878;-70
2023/09/12 05:59:05;;;;;;;13.57;7.60;;;;;;;18.48;100.00;100216.87;5587712;31;35657;-68
2023/09/12 06:02:09;;;;;;;19.15;7.45;;;;;;;18.63;100.00;100222.75;5588486;31;34022;-68
2023/09/12 06:05:12;;;;;;;18.85;7.32;;;;;;;18.55;100.00;100222.19;5588990;31;34054;-68
2023/09/12 06:08:15;;;;;;;19.27;7.65;;;;;;;18.78;100.00;100219.69;5589271;31;33888;-67
2023/09/12 06:11:18;;;;;;;20.70;7.05;;;;;;;18.86;100.00;100221.22;5588798;31;33817;-67
2023/09/12 06:14:20;;;;;;;19.27;7.55;;;;;;;18.99;100.00;100229.12;5589050;31;33840;-67
2023/09/12 06:17:23;;;;;;;18.70;7.25;;;;;;;19.03;100.00;100222.22;5589410;31;33969;-67
2023/09/12 06:20:26;;;;;;;24.37;7.60;;;;;;;19.18;100.00;100219.97;5588986;31;33891;-67
2023/09/12 06:23:30;;;;;;;24.58;7.72;;;;;;;19.35;100.00;100225.53;5588998;31;33967;-68
2023/09/12 06:26:33;;;;;;;20.25;7.30;;;;;;;19.63;100.00;100233.03;5587877;31;33835;-68
2023/09/12 06:29:36;;;;;;;19.70;7.35;;;;;;;20.05;100.00;100231.09;5587905;31;34523;-69
2023/09/12 06:32:39;;;;;;;26.87;7.50;;;;;;;20.63;100.00;100236.50;5587907;31;33730;-68
2023/09/12 06:35:42;;;;;;;17.15;7.05;;;;;;;21.24;100.00;100236.72;5587942;31;33805;-68
2023/09/12 06:38:44;;;;;;;23.55;7.18;;;;;;;21.90;100.00;100237.06;5587601;31;34116;-67
2023/09/12 06:41:47;;;;;;;21.17;7.10;;;;;;;22.29;100.00;100244.19;5588100;31;33999;-67
2023/09/12 06:44:50;;;;;;;20.75;6.40;;;;;;;22.20;100.00;100243.00;5587553;31;33945;-67
2023/09/12 06:47:53;;;;;;;15.32;6.32;;;;;;;22.67;100.00;100243.38;5587803;31;34167;-67
2023/09/12 06:50:56;;;;;;;15.15;6.00;;;;;;;22.67;100.00;100242.56;5587316;31;33951;-67
2023/09/12 06:54:00;;;;;;;16.00;6.00;;;;;;;23.25;98.36;100239.25;5588128;31;34357;-68
2023/09/12 06:57:02;;;;;;;15.23;6.12;;;;;;;24.27;87.36;100243.72;5587804;31;34947;-69
2023/09/12 07:00:07;;;;;;;24.00;6.70;;;;;;;24.84;78.74;100241.88;5587649;31;33853;-69
2023/09/12 07:03:10;;;;;;;18.75;6.28;;;;;;;25.13;73.83;100242.28;5587710;31;33795;-67
2023/09/12 07:06:17;;;;;;;26.30;7.40;;;;;;;25.37;72.59;100242.62;5588338;31;33953;-68
2023/09/12 07:09:20;;;;;;;17.65;8.48;;;;;;;25.30;72.36;100250.22;5588258;31;34546;-69
2023/09/12 07:12:23;;;;;;;13.48;6.28;;;;;;;25.99;69.25;100250.63;5588063;31;33844;-68
2023/09/12 07:15:26;;;;;;;13.55;6.75;;;;;;;26.79;65.49;100257.03;5588184;31;34036;-68
2023/09/12 07:18:32;;;;;;;17.90;7.40;;;;;;;27.14;61.41;100256.94;5588032;31;33836;-68
2023/09/12 07:21:35;;;;;;;21.52;6.62;;;;;;;27.66;59.26;100252.81;5587895;31;34017;-68
2023/09/12 07:24:39;;;;;;;22.98;6.60;;;;;;;28.28;56.67;100254.78;5587620;31;34741;-68
2023/09/12 07:27:41;;;;;;;20.45;8.02;;;;;;;28.84;54.76;100259.69;5587118;31;34602;-68
2023/09/12 07:30:47;;;;;;;15.25;6.90;;;;;;;29.35;52.79;100265.31;5587805;31;33896;-69
2023/09/12 07:33:51;;;;;;;18.15;7.32;;;;;;;29.33;52.83;100262.91;5587790;31;33928;-69
2023/09/12 07:36:54;;;;;;;21.42;7.20;;;;;;;29.86;52.32;100270.84;5587817;31;34483;-69
2023/09/12 07:39:57;;;;;;;14.73;7.12;;;;;;;30.59;49.02;100265.53;5590658;31;34610;-71
2023/09/12 07:43:00;;;;;;;17.17;7.25;;;;;;;31.29;47.10;100267.94;5589938;31;33843;-71
2023/09/12 07:46:03;;;;;;;21.83;6.82;;;;;;;31.19;46.92;100262.66;5590381;31;34071;-70
2023/09/12 07:49:09;;;;;;;15.52;7.28;;;;;;;31.53;44.49;100262.16;5590648;31;33855;-71
2023/09/12 07:52:11;;;;;;;17.45;7.00;;;;;;;32.37;41.31;100261.53;5590298;31;34013;-68
2023/09/12 07:55:14;;;;;;;26.20;7.28;;;;;;;31.65;43.75;100262.47;5590223;31;34200;-72
2023/09/12 07:58:21;;;;;;;18.30;7.18;;;;;;;30.98;44.81;100261.47;5590217;31;33990;-67
2023/09/12 08:01:24;;;;;;;20.83;6.80;;;;;;;32.74;41.68;100256.38;5589930;31;34442;-68
2023/09/12 08:04:28;;;;;;;25.42;6.82;;;;;;;32.67;40.91;100253.31;5590273;31;33811;-68
2023/09/12 08:07:31;;;;;;;17.23;6.75;;;;;;;32.96;39.98;100251.94;5590267;31;33849;-72
2023/09/12 08:10:34;;;;;;;47.58;7.72;;;;;;;33.61;40.53;100249.09;5590296;31;33761;-72
2023/09/12 08:13:36;;;;;;;17.17;6.32;;;;;;;33.78;39.89;100253.84;5590093;31;33871;-72
2023/09/12 08:16:40;;;;;;;19.55;7.05;;;;;;;33.85;39.85;100248.62;5590118;31;34092;-72
2023/09/12 08:19:43;;;;;;;31.65;6.87;;;;;;;33.54;39.75;100246.87;5589889;31;34548;-72
2023/09/12 08:22:46;;;;;;;25.48;6.87;;;;;;;34.65;37.71;100253.31;5576613;31;33861;-72
2023/09/12 08:25:49;;;;;;;21.73;6.37;;;;;;;34.33;37.88;100248.38;5589798;31;34711;-72
2023/09/12 08:28:52;;;;;;;26.70;6.47;;;;;;;34.00;36.24;100246.19;5589996;31;34601;-72
2023/09/12 08:31:55;;;;;;;25.17;6.45;;;;;;;34.68;37.28;100258.16;5589302;31;33884;-73
2023/09/12 08:34:59;;;;;;;20.67;6.75;;;;;;;35.50;35.21;100255.91;5590233;31;34529;-72
2023/09/12 08:38:02;;;;;;;20.48;5.65;;;;;;;35.85;34.82;100260.00;5589997;31;33814;-72
2023/09/12 08:41:05;;;;;;;30.58;6.40;;;;;;;36.34;34.36;100249.12;5589011;31;33979;-72
2023/09/12 08:44:09;;;;;;;201.20;13.10;;;;;;;36.10;34.30;100244.31;5589784;31;34182;-72
2023/09/12 08:47:13;;;;;;;24.37;6.28;;;;;;;35.87;34.27;100254.97;5590034;31;34532;-72
2023/09/12 08:50:17;;;;;;;20.67;6.47;;;;;;;36.17;33.95;100245.41;5589366;31;34525;-71
2023/09/12 08:53:22;;;;;;;21.90;6.18;;;;;;;35.30;35.43;100252.00;5589875;31;33901;-70
2023/09/12 08:56:25;;;;;;;19.33;5.28;;;;;;;35.88;33.86;100241.94;5588865;31;34171;-71
2023/09/12 08:59:31;;;;;;;20.98;6.68;;;;;;;33.48;37.30;100234.41;5589787;31;34571;-72
2023/09/12 09:02:40;;;;;;;20.60;6.10;;;;;;;32.40;40.16;100233.41;5591298;31;34417;-71
2023/09/12 09:05:45;;;;;;;12.30;5.50;;;;;;;31.26;42.09;100229.38;5589248;31;34369;-70
2023/09/12 09:08:49;;;;;;;20.45;6.05;;;;;;;29.83;46.98;100229.59;5589777;31;33791;-72
2023/09/12 09:11:52;;;;;;;20.48;6.80;;;;;;;29.35;46.42;100230.59;5589002;31;33836;-71
2023/09/12 09:14:55;;;;;;;31.90;7.22;;;;;;;28.50;47.27;100221.56;5589714;31;33903;-71
2023/09/12 09:18:01;;;;;;;22.23;6.10;;;;;;;28.66;48.91;100222.19;5589725;31;33743;-71
2023/09/12 09:21:22;;;;;;;18.35;6.20;;;;;;;28.70;45.71;100215.84;5589086;31;33846;-71
2023/09/12 09:24:25;;;;;;;17.90;5.80;;;;;;;28.32;47.47;100228.53;5589445;31;33873;-71
2023/09/12 09:27:34;;;;;;;20.25;5.55;;;;;;;28.25;45.65;100219.91;5589766;31;35128;-70
2023/09/12 09:30:41;;;;;;;42.40;6.60;;;;;;;27.99;47.89;100216.56;5589535;31;34514;-71
2023/09/12 09:33:51;;;;;;;14.73;5.43;;;;;;;28.14;48.10;100214.81;5589488;31;33866;-72
2023/09/12 09:36:56;;;;;;;22.10;6.12;;;;;;;28.08;45.39;100222.19;5589796;31;33473;-70
2023/09/12 09:39:59;;;;;;;18.67;5.57;;;;;;;28.10;48.02;100212.66;5589637;31;33793;-70
2023/09/12 09:43:03;;;;;;;13.43;4.82;;;;;;;28.16;45.01;100216.19;5589482;31;33945;-72
2023/09/12 09:46:06;;;;;;;19.00;4.93;;;;;;;28.10;43.96;100222.75;5589402;31;35286;-71
2023/09/12 09:49:14;;;;;;;18.60;5.40;;;;;;;28.06;43.72;100221.69;5589599;31;34042;-70
2023/09/12 09:52:25;;;;;;;13.88;4.43;;;;;;;28.08;45.53;100216.75;5590894;31;33795;-68
2023/09/12 09:55:29;;;;;;;12.63;4.95;;;;;;;28.06;44.93;100216.22;5589591;31;34866;-70
2023/09/12 09:58:34;;;;;;;13.73;4.53;;;;;;;28.15;43.43;100214.53;5592202;31;34107;-70
2023/09/12 10:01:38;;;;;;;11.38;3.90;;;;;;;28.25;43.24;100219.91;5589278;31;34700;-70
2023/09/12 10:04:43;;;;;;;12.52;4.20;;;;;;;28.23;41.67;100210.34;5588591;31;33820;-69
2023/09/12 10:07:52;;;;;;;13.02;4.10;;;;;;;28.35;41.80;100213.53;5589359;31;34025;-70
2023/09/12 10:10:55;;;;;;;11.15;4.40;;;;;;;28.50;41.72;100206.00;5589340;31;35375;-72
2023/09/12 10:14:02;;;;;;;11.80;4.20;;;;;;;28.56;42.67;100212.22;5588314;31;34067;-70
2023/09/12 10:17:05;;;;;;;13.18;4.20;;;;;;;28.52;41.63;100203.75;5588961;31;33970;-71
2023/09/12 10:20:16;;;;;;;12.95;4.00;;;;;;;28.66;42.04;100205.81;5589257;31;34602;-71
2023/09/12 10:23:41;;;;;;;15.55;4.30;;;;;;;28.70;40.87;100201.41;5589046;31;33859;-71
2023/09/12 10:27:06;;;;;;;12.68;4.00;;;;;;;28.89;41.46;100202.28;5589277;31;35045;-72
2023/09/12 10:30:09;;;;;;;14.07;4.12;;;;;;;29.07;38.48;100198.75;5589107;31;34712;-72
2023/09/12 10:33:14;;;;;;;11.12;4.68;;;;;;;29.14;41.05;100196.47;5589004;31;33856;-71
2023/09/12 10:36:19;;;;;;;8.13;4.12;;;;;;;29.33;38.66;100191.84;5587937;31;33958;-71
2023/09/12 10:39:25;;;;;;;20.85;4.55;;;;;;;29.41;39.95;100184.88;5588468;31;33898;-71
2023/09/12 10:42:28;;;;;;;12.73;4.53;;;;;;;29.52;38.24;100185.53;5589325;31;34477;-70
2023/09/12 10:45:33;;;;;;;11.10;4.40;;;;;;;29.55;38.51;100193.13;5588840;31;33785;-71
2023/09/12 10:48:36;;;;;;;20.33;4.45;;;;;;;29.76;37.60;100192.53;5588847;31;33755;-72
2023/09/12 10:51:41;;;;;;;13.13;4.70;;;;;;;30.68;37.00;100193.59;5588529;31;34858;-72
2023/09/12 10:54:44;;;;;;;14.02;4.72;;;;;;;33.74;33.08;100193.16;5588550;31;33796;-71
2023/09/12 10:58:04;;;;;;;14.93;4.47;;;;;;;36.76;28.87;100194.44;5588630;31;34103;-72
2023/09/12 11:01:25;;;;;;;18.08;4.70;;;;;;;37.63;27.69;100203.03;5588443;31;34242;-71
2023/09/12 11:04:30;;;;;;;19.10;4.40;;;;;;;38.88;25.88;100199.56;5588623;31;33918;-72
2023/09/12 11:07:44;;;;;;;11.80;3.95;;;;;;;39.94;24.39;100193.47;5588848;31;33802;-73
2023/09/12 11:11:21;;;;;;;11.02;4.18;;;;;;;40.03;24.30;100196.00;5588700;31;34084;-72
2023/09/12 11:14:26;;;;;;;19.08;5.32;;;;;;;39.75;24.41;100193.50;5590486;31;35330;-71
2023/09/12 11:17:29;;;;;;;13.75;4.78;;;;;;;42.00;23.24;100186.09;5590687;31;33813;-72
2023/09/12 11:20:58;;;;;;;15.13;4.20;;;;;;;41.56;22.34;100183.25;5590626;31;33842;-72
2023/09/12 11:24:01;;;;;;;13.32;3.53;;;;;;;40.62;23.40;100185.13;5590463;31;34433;-72
2023/09/12 11:27:07;;;;;;;10.80;3.35;;;;;;;40.65;23.44;100176.03;5590676;31;34526;-72
2023/09/12 11:30:11;;;;;;;12.88;3.87;;;;;;;42.24;21.60;100177.16;5591079;31;33923;-72
2023/09/12 11:33:15;;;;;;;11.10;3.80;;;;;;;41.89;21.56;100166.50;5590010;31;34032;-72
2023/09/12 11:36:19;;;;;;;16.27;4.05;;;;;;;41.86;21.21;100169.25;5591950;31;33851;-73
2023/09/12 11:39:24;;;;;;;14.52;3.87;;;;;;;42.14;21.32;100163.13;5590191;31;33886;-72
2023/09/12 11:42:27;;;;;;;19.92;4.47;;;;;;;43.97;19.91;100170.88;5589753;31;33990;-73
2023/09/12 11:45:32;;;;;;;17.92;3.62;;;;;;;45.21;19.45;100159.56;5590497;31;33797;-73
2023/09/12 11:48:35;;;;;;;17.42;3.53;;;;;;;43.26;19.63;100149.16;5589942;31;33723;-73
2023/09/12 11:51:54;;;;;;;15.23;3.60;;;;;;;44.16;19.95;100151.72;5589725;31;34827;-74
2023/09/12 11:54:57;;;;;;;11.73;3.80;;;;;;;44.34;20.03;100153.75;5590265;31;34253;-72
2023/09/12 11:58:00;;;;;;;20.35;4.03;;;;;;;44.05;18.98;100150.13;5590393;31;34494;-73
2023/09/12 12:01:03;;;;;;;17.70;3.90;;;;;;;43.99;19.22;100137.75;5590254;31;33765;-73
2023/09/12 12:04:07;;;;;;;27.08;4.00;;;;;;;44.43;19.52;100146.53;5590339;31;34067;-74
2023/09/12 12:07:11;;;;;;;16.25;4.03;;;;;;;44.21;18.82;100149.72;5589545;31;33804;-73
2023/09/12 12:10:14;;;;;;;9.30;3.70;;;;;;;45.30;18.00;100145.91;5590166;31;33840;-74
2023/09/12 12:13:18;;;;;;;12.35;3.70;;;;;;;43.81;19.73;100137.72;5589803;31;34567;-75
2023/09/12 12:16:21;;;;;;;38.67;4.78;;;;;;;43.11;20.14;100122.34;5589007;31;33917;-74
2023/09/12 12:19:28;;;;;;;19.35;3.72;;;;;;;43.03;20.41;100125.50;5590127;31;33978;-72
2023/09/12 12:22:31;;;;;;;11.88;3.95;;;;;;;44.60;18.55;100134.50;5590104;31;34706;-73
2023/09/12 12:25:35;;;;;;;16.33;3.60;;;;;;;44.53;18.06;100130.94;5589618;31;34519;-73
2023/09/12 12:28:38;;;;;;;14.02;3.65;;;;;;;45.25;18.01;100121.91;5590278;31;33780;-73
2023/09/12 12:31:41;;;;;;;11.18;3.42;;;;;;;45.40;17.64;100117.06;5590284;31;33435;-73
2023/09/12 12:34:48;;;;;;;14.00;4.05;;;;;;;44.89;17.87;100118.44;5590072;31;33952;-72
2023/09/12 12:38:12;;;;;;;18.05;3.55;;;;;;;45.46;17.05;100123.03;5590186;31;33826;-74
2023/09/12 12:41:25;;;;;;;12.73;3.90;;;;;;;45.42;17.40;100115.41;5590567;31;33906;-73
2023/09/12 12:44:35;;;;;;;13.45;3.55;;;;;;;44.73;17.83;100111.72;5576870;31;33871;-74
2023/09/12 12:47:38;;;;;;;16.85;4.10;;;;;;;45.20;17.42;100094.31;5589838;31;33937;-73
2023/09/12 12:50:43;;;;;;;16.65;3.65;;;;;;;44.97;18.63;100097.63;5589209;31;34550;-73
2023/09/12 12:53:50;;;;;;;10.30;3.37;;;;;;;44.40;17.97;100090.56;5590004;31;33878;-73
2023/09/12 12:56:56;;;;;;;17.35;3.80;;;;;;;43.40;18.40;100097.31;5589444;31;33949;-73
2023/09/12 13:00:00;;;;;;;10.57;3.30;;;;;;;43.23;19.03;100084.91;5590331;31;33790;-73
2023/09/12 13:03:03;;;;;;;15.68;3.90;;;;;;;45.93;16.82;100091.44;5589851;31;33902;-73
2023/09/12 13:06:07;;;;;;;12.20;3.37;;;;;;;46.87;16.69;100095.69;5590070;31;34188;-72
2023/09/12 13:09:11;;;;;;;15.82;3.47;;;;;;;45.78;17.16;100075.97;5590052;31;33834;-73
2023/09/12 13:12:15;;;;;;;16.77;3.80;;;;;;;43.79;18.09;100083.41;5590203;31;33923;-74
2023/09/12 13:15:18;;;;;;;16.90;4.28;;;;;;;45.57;17.28;100074.09;5589858;31;33932;-73
2023/09/12 13:18:21;;;;;;;16.15;3.75;;;;;;;43.82;18.31;100088.19;5590163;31;33870;-74
2023/09/12 13:21:24;;;;;;;14.87;4.00;;;;;;;45.94;17.08;100084.63;5589789;31;33916;-73
2023/09/12 13:24:28;;;;;;;25.42;4.00;;;;;;;46.10;16.62;100081.25;5589524;31;33860;-73
2023/09/12 13:27:30;;;;;;;22.80;3.85;;;;;;;44.94;17.81;100080.81;5589607;31;33872;-73
2023/09/12 13:30:33;;;;;;;20.27;4.00;;;;;;;45.48;17.34;100075.75;5589614;31;32630;-73
2023/09/12 13:33:36;;;;;;;17.60;4.00;;;;;;;46.07;17.42;100068.88;5589481;31;33786;-72
2023/09/12 13:36:39;;;;;;;12.88;4.07;;;;;;;43.77;17.44;100069.06;5589183;31;34024;-71
2023/09/12 13:39:48;;;;;;;15.57;3.58;;;;;;;42.62;18.50;100063.47;5589717;31;33910;-70
2023/09/12 13:42:51;;;;;;;20.10;3.80;;;;;;;43.38;18.05;100071.78;5589357;31;33835;-71
2023/09/12 13:45:54;;;;;;;34.33;4.62;;;;;;;43.82;17.68;100061.03;5589268;31;33912;-72
2023/09/12 13:49:03;;;;;;;28.40;4.78;;;;;;;44.25;18.97;100067.47;5589122;31;34671;-71
2023/09/12 13:52:06;;;;;;;20.65;4.03;;;;;;;43.41;19.10;100062.59;5589290;31;33928;-71
2023/09/12 13:55:13;;;;;;;14.85;4.20;;;;;;;45.12;17.27;100061.97;5589159;31;34054;-71
2023/09/12 13:58:36;;;;;;;15.73;4.17;;;;;;;45.18;16.57;100053.91;5589234;31;34528;-71
2023/09/12 14:01:48;;;;;;;22.37;4.65;;;;;;;43.82;17.81;100055.44;5589222;31;33735;-72
2023/09/12 14:04:51;;;;;;;22.60;3.87;;;;;;;45.38;16.71;100052.19;5588527;31;33826;-71